Time;durP1;ratioP1;P1;durP2;ratioP2;P2;SDS_P1;SDS_P2;PMS_P1;PMS_P2;Temp;Humidity;BMP_temperature;BMP_pressure;BME280_temperature;BME280_humidity;BME280_pressure;Samples;Min_cycle;Max_cycle;Signal;HPM_P1;HPM_P2
2021/03/29 00:00:21;;;;;;;7.70;6.95;;;3.60;60.90;;;;;;5179390;28;20127;-71
2021/03/29 00:02:53;;;;;;;8.75;7.70;;;3.70;60.50;;;;;;5184738;28;20495;-69
2021/03/29 00:05:29;;;;;;;7.97;6.82;;;3.70;60.60;;;;;;5180975;28;20053;-70
2021/03/29 00:08:12;;;;;;;8.15;6.72;;;3.70;61.40;;;;;;5184850;28;20416;-69
2021/03/29 00:10:46;;;;;;;7.72;7.00;;;3.70;61.60;;;;;;5186194;28;20042;-70
2021/03/29 00:13:18;;;;;;;7.63;6.93;;;3.70;61.30;;;;;;5184653;28;20073;-69
2021/03/29 00:15:53;;;;;;;7.68;6.97;;;3.80;61.40;;;;;;5184045;28;20454;-70
2021/03/29 00:18:25;;;;;;;8.18;7.45;;;3.70;61.30;;;;;;5184895;28;20051;-68
2021/03/29 00:21:02;;;;;;;8.25;7.20;;;3.60;62.10;;;;;;5188446;28;20045;-70
2021/03/29 00:23:35;;;;;;;8.32;7.43;;;3.50;63.20;;;;;;5185371;28;20046;-69
2021/03/29 00:26:07;;;;;;;7.78;7.00;;;3.40;63.20;;;;;;5184781;28;20087;-69
2021/03/29 00:28:39;;;;;;;7.47;6.78;;;3.40;62.00;;;;;;5184232;28;20045;-68
2021/03/29 00:31:11;;;;;;;7.60;6.80;;;3.50;61.70;;;;;;5184463;28;20451;-68
2021/03/29 00:33:43;;;;;;;7.72;6.82;;;3.50;61.90;;;;;;5199882;28;20660;-69
2021/03/29 00:36:16;;;;;;;7.68;6.85;;;3.40;62.10;;;;;;5181594;28;20573;-70
2021/03/29 00:38:49;;;;;;;7.88;7.07;;;3.40;60.70;;;;;;5187956;28;20041;-71
2021/03/29 00:41:21;;;;;;;7.65;6.95;;;3.40;61.40;;;;;;5185904;28;20470;-70
2021/03/29 00:43:54;;;;;;;7.85;6.93;;;3.50;62.00;;;;;;5185764;28;20060;-70
2021/03/29 00:46:27;;;;;;;8.02;7.32;;;3.50;62.10;;;;;;5186089;28;20060;-70
2021/03/29 00:48:59;;;;;;;7.97;7.18;;;3.50;62.00;;;;;;5183525;28;20438;-69
2021/03/29 00:51:35;;;;;;;8.27;7.30;;;3.50;62.50;;;;;;5183394;28;20076;-71
2021/03/29 00:54:10;;;;;;;8.25;7.45;;;3.40;61.90;;;;;;5186483;28;20044;-70
2021/03/29 00:56:42;;;;;;;8.20;7.05;;;3.40;62.40;;;;;;5184923;28;20045;-70
2021/03/29 00:59:15;;;;;;;7.63;6.93;;;3.30;62.50;;;;;;5184044;28;20049;-69
2021/03/29 01:01:49;;;;;;;8.02;7.32;;;3.30;62.40;;;;;;5185900;28;20055;-70
2021/03/29 01:04:22;;;;;;;7.97;7.18;;;3.30;62.20;;;;;;5182998;28;20050;-69
2021/03/29 01:06:54;;;;;;;8.93;8.13;;;3.30;62.70;;;;;;5179660;28;20128;-70
2021/03/29 01:09:27;;;;;;;8.30;7.22;;;3.30;61.50;;;;;;5181123;28;20309;-70
2021/03/29 01:12:06;;;;;;;7.90;7.18;;;3.30;61.10;;;;;;5183346;28;20041;-70
2021/03/29 01:14:45;;;;;;;8.20;7.40;;;3.30;61.70;;;;;;5184400;28;20562;-70
2021/03/29 01:17:32;;;;;;;7.87;7.07;;;3.30;60.60;;;;;;5182847;28;20116;-70
2021/03/29 01:20:04;;;;;;;8.25;7.45;;;3.30;59.10;;;;;;5185689;28;20577;-71
2021/03/29 01:22:48;;;;;;;7.70;7.00;;;3.40;59.10;;;;;;5185200;28;20049;-69
2021/03/29 01:25:44;;;;;;;7.50;6.80;;;3.40;59.10;;;;;;5186582;28;20926;-70
2021/03/29 01:28:17;;;;;;;8.13;7.43;;;3.50;58.70;;;;;;5186877;28;20101;-70
2021/03/29 01:30:50;;;;;;;8.30;7.50;;;3.50;58.40;;;;;;5188869;28;20545;-71
2021/03/29 01:33:23;;;;;;;7.80;7.10;;;3.60;59.20;;;;;;5188877;28;20046;-69
2021/03/29 01:35:59;;;;;;;7.90;7.20;;;3.50;60.90;;;;;;5188425;28;20034;-71
2021/03/29 01:38:32;;;;;;;8.18;7.30;;;3.50;60.30;;;;;;5190008;28;20057;-70
2021/03/29 01:41:03;;;;;;;7.90;6.85;;;3.60;60.50;;;;;;5192068;28;20042;-71
2021/03/29 01:43:36;;;;;;;9.48;7.72;;;3.50;60.80;;;;;;5185622;28;20045;-71
2021/03/29 01:46:08;;;;;;;9.00;7.38;;;3.50;60.30;;;;;;5190825;28;20100;-68
2021/03/29 01:48:40;;;;;;;8.07;7.38;;;3.50;60.30;;;;;;5188514;28;20125;-69
2021/03/29 01:51:15;;;;;;;8.00;7.20;;;3.40;60.40;;;;;;5187668;28;20060;-69
2021/03/29 01:53:47;;;;;;;8.52;7.60;;;3.40;60.00;;;;;;5185958;28;20045;-70
2021/03/29 01:56:19;;;;;;;8.30;7.50;;;3.30;59.40;;;;;;5186653;28;20517;-70
2021/03/29 01:58:50;;;;;;;7.75;6.95;;;3.30;59.80;;;;;;5187896;28;20089;-70
2021/03/29 02:01:22;;;;;;;8.40;7.60;;;3.20;59.90;;;;;;5185377;28;20109;-69
2021/03/29 02:03:54;;;;;;;9.45;7.70;;;3.30;59.60;;;;;;5184721;28;20104;-69
2021/03/29 02:06:27;;;;;;;8.00;7.20;;;3.30;59.40;;;;;;5189284;28;20487;-68
2021/03/29 02:09:00;;;;;;;7.80;7.07;;;3.40;58.20;;;;;;5186581;28;20046;-70
2021/03/29 02:11:32;;;;;;;7.95;7.25;;;3.40;58.30;;;;;;5188371;28;20446;-70
2021/03/29 02:14:05;;;;;;;7.88;7.18;;;3.50;58.50;;;;;;5187145;28;20052;-71
2021/03/29 02:16:36;;;;;;;8.80;7.40;;;3.50;58.20;;;;;;5171523;28;20115;-70
2021/03/29 02:19:09;;;;;;;8.18;7.38;;;3.50;59.90;;;;;;5189743;28;20049;-69
2021/03/29 02:21:42;;;;;;;8.07;7.38;;;3.40;59.40;;;;;;5169138;28;20497;-69
2021/03/29 02:24:14;;;;;;;8.80;8.00;;;3.40;59.50;;;;;;5187881;28;20470;-70
2021/03/29 02:26:46;;;;;;;7.78;7.07;;;3.40;60.10;;;;;;5186963;28;20122;-69
2021/03/29 02:29:19;;;;;;;10.02;7.88;;;3.30;59.60;;;;;;5185400;28;20591;-70
2021/03/29 02:31:52;;;;;;;8.15;7.45;;;3.30;57.50;;;;;;5182937;28;20046;-70
2021/03/29 02:34:24;;;;;;;8.23;7.53;;;3.40;59.10;;;;;;5188811;28;20126;-69
2021/03/29 02:36:56;;;;;;;8.43;7.63;;;3.30;59.50;;;;;;5184396;28;20135;-71
2021/03/29 02:39:28;;;;;;;8.35;7.55;;;3.30;59.80;;;;;;5187325;28;20055;-70
2021/03/29 02:42:04;;;;;;;8.88;8.05;;;3.30;60.10;;;;;;5188562;28;20107;-70
2021/03/29 02:44:36;;;;;;;7.95;7.15;;;3.30;60.20;;;;;;5184475;28;20127;-70
2021/03/29 02:47:08;;;;;;;7.95;7.15;;;3.20;59.70;;;;;;5187299;28;20050;-70
2021/03/29 02:49:41;;;;;;;7.85;7.15;;;3.20;60.00;;;;;;5185423;28;20046;-70
2021/03/29 02:52:15;;;;;;;8.38;7.60;;;3.20;59.40;;;;;;5183678;28;20115;-70
2021/03/29 02:54:47;;;;;;;8.95;6.72;;;3.20;58.80;;;;;;5189622;28;20037;-71
2021/03/29 02:57:19;;;;;;;7.75;7.05;;;3.20;58.90;;;;;;5186354;28;20522;-70
2021/03/29 02:59:51;;;;;;;8.00;7.30;;;3.30;59.90;;;;;;5185320;28;20743;-70
2021/03/29 03:02:24;;;;;;;8.23;7.43;;;3.30;58.90;;;;;;5187529;28;20069;-70
2021/03/29 03:04:55;;;;;;;7.72;7.03;;;3.20;58.90;;;;;;5181802;28;20139;-70
2021/03/29 03:07:27;;;;;;;8.05;7.22;;;3.20;58.50;;;;;;5183882;28;20143;-70
2021/03/29 03:09:59;;;;;;;8.20;7.25;;;3.30;58.80;;;;;;5191425;28;20132;-69
2021/03/29 03:12:31;;;;;;;8.45;7.63;;;3.30;58.80;;;;;;5187507;28;20049;-71
2021/03/29 03:15:08;;;;;;;8.60;7.80;;;3.30;58.30;;;;;;5186902;28;20123;-71
2021/03/29 03:17:40;;;;;;;9.13;7.45;;;3.20;58.30;;;;;;5186420;28;20551;-70
2021/03/29 03:20:14;;;;;;;8.88;7.97;;;3.10;59.30;;;;;;5187736;28;20146;-70
2021/03/29 03:22:54;;;;;;;8.30;7.50;;;3.10;58.70;;;;;;5186655;28;20037;-70
2021/03/29 03:25:30;;;;;;;8.20;7.40;;;3.10;59.00;;;;;;5186827;28;20041;-70
2021/03/29 03:28:04;;;;;;;8.60;7.68;;;3.20;60.00;;;;;;5186886;28;20116;-71
2021/03/29 03:30:38;;;;;;;8.77;7.40;;;3.10;60.10;;;;;;5181377;28;20045;-72
2021/03/29 03:33:13;;;;;;;8.10;7.30;;;3.10;60.60;;;;;;5185655;28;20050;-71
2021/03/29 03:35:45;;;;;;;8.00;7.20;;;3.00;61.00;;;;;;5186744;28;20104;-69
2021/03/29 03:38:29;;;;;;;7.70;7.00;;;3.00;58.90;;;;;;5185372;28;20043;-70
2021/03/29 03:41:05;;;;;;;7.82;7.13;;;3.00;59.40;;;;;;5184355;28;20431;-70
2021/03/29 03:43:42;;;;;;;8.05;7.20;;;3.00;58.10;;;;;;5186604;28;20391;-69
2021/03/29 03:46:36;;;;;;;7.97;7.28;;;3.10;58.40;;;;;;5187208;28;20077;-69
2021/03/29 03:49:12;;;;;;;8.00;7.30;;;3.10;58.50;;;;;;5183330;28;20077;-70
2021/03/29 03:51:45;;;;;;;7.70;7.00;;;3.10;58.10;;;;;;5182108;28;20128;-70
2021/03/29 03:54:19;;;;;;;8.07;7.28;;;3.10;58.10;;;;;;5183582;28;20072;-70
2021/03/29 03:56:50;;;;;;;7.95;7.25;;;3.10;57.60;;;;;;5186991;28;20052;-70
2021/03/29 03:59:22;;;;;;;8.00;7.30;;;3.10;57.60;;;;;;5187104;28;20041;-69
2021/03/29 04:02:05;;;;;;;8.57;7.75;;;3.20;57.70;;;;;;5183126;28;20061;-71
2021/03/29 04:04:36;;;;;;;8.40;7.60;;;3.10;58.10;;;;;;5187756;28;20049;-69
2021/03/29 04:07:08;;;;;;;8.50;7.80;;;3.10;58.40;;;;;;5201152;28;20110;-68
2021/03/29 04:12:12;;;;;;;8.10;7.30;;;3.10;57.40;;;;;;5181713;28;20049;-70
2021/03/29 04:14:44;;;;;;;8.55;7.75;;;3.10;57.20;;;;;;5185895;28;20042;-69
2021/03/29 04:17:15;;;;;;;8.40;7.65;;;3.20;57.00;;;;;;5183866;28;20116;-68
2021/03/29 04:19:46;;;;;;;8.70;7.90;;;3.20;57.80;;;;;;5185092;28;20092;-69
2021/03/29 04:22:18;;;;;;;8.70;8.00;;;3.20;58.90;;;;;;5179393;28;20038;-69
2021/03/29 04:24:49;;;;;;;11.68;8.20;;;3.20;59.00;;;;;;5186134;28;20107;-69
2021/03/29 04:27:21;;;;;;;8.07;7.38;;;3.10;59.00;;;;;;5183467;28;20538;-69
2021/03/29 04:29:52;;;;;;;8.60;7.80;;;3.10;58.80;;;;;;5186189;28;20114;-69
2021/03/29 04:32:24;;;;;;;8.80;8.00;;;3.10;59.50;;;;;;5184549;28;20447;-68
2021/03/29 04:34:55;;;;;;;8.35;7.22;;;3.00;58.80;;;;;;5198061;28;20049;-69
2021/03/29 04:37:27;;;;;;;8.90;8.07;;;3.00;58.30;;;;;;5183310;28;20481;-69
2021/03/29 04:39:58;;;;;;;8.50;7.70;;;3.00;57.70;;;;;;5185139;28;20077;-69
2021/03/29 04:42:30;;;;;;;9.02;8.02;;;3.00;58.20;;;;;;5185624;28;20045;-68
2021/03/29 04:45:01;;;;;;;9.02;8.10;;;3.00;57.70;;;;;;5183969;28;20054;-68
2021/03/29 04:47:33;;;;;;;8.60;7.80;;;3.00;59.10;;;;;;5183919;28;20485;-68
2021/03/29 04:50:06;;;;;;;9.75;7.72;;;2.90;59.70;;;;;;5186218;28;20041;-69
2021/03/29 04:52:38;;;;;;;8.20;7.50;;;2.90;58.70;;;;;;5187153;28;20951;-68
2021/03/29 04:55:12;;;;;;;10.13;7.70;;;2.90;57.40;;;;;;5190750;28;20654;-68
2021/03/29 04:57:44;;;;;;;8.00;7.22;;;2.90;58.80;;;;;;5203894;28;20049;-69
2021/03/29 05:00:16;;;;;;;8.00;7.30;;;2.80;59.80;;;;;;5188217;28;20123;-70
2021/03/29 05:02:47;;;;;;;9.13;8.23;;;2.80;59.40;;;;;;5186799;28;20130;-70
2021/03/29 05:05:18;;;;;;;10.80;8.23;;;2.90;60.40;;;;;;5190015;28;20046;-69
2021/03/29 05:07:50;;;;;;;9.75;8.05;;;2.70;61.40;;;;;;5190753;28;20034;-71
2021/03/29 05:10:21;;;;;;;8.35;7.43;;;2.60;61.40;;;;;;5187652;28;20129;-67
2021/03/29 05:12:58;;;;;;;9.43;7.82;;;2.60;60.00;;;;;;5192400;28;20484;-67
2021/03/29 05:15:30;;;;;;;8.40;7.70;;;2.70;57.90;;;;;;5191690;28;20052;-66
2021/03/29 05:18:01;;;;;;;8.77;7.28;;;2.90;57.50;;;;;;5186457;28;20103;-67
2021/03/29 05:20:33;;;;;;;7.78;6.97;;;3.00;56.80;;;;;;5197315;28;20128;-67
2021/03/29 05:23:04;;;;;;;9.43;7.88;;;3.00;57.80;;;;;;5193421;28;20041;-67
2021/03/29 05:25:36;;;;;;;9.55;7.88;;;3.00;59.60;;;;;;5195404;28;20166;-66
2021/03/29 05:28:07;;;;;;;7.68;6.97;;;3.00;59.20;;;;;;5196238;28;20127;-67
2021/03/29 05:30:38;;;;;;;7.90;7.10;;;2.90;59.10;;;;;;5190968;28;20461;-68
2021/03/29 05:33:10;;;;;;;7.60;6.80;;;2.90;58.50;;;;;;5194334;28;21040;-66
2021/03/29 05:35:42;;;;;;;8.00;6.85;;;2.90;58.90;;;;;;5194254;28;20045;-66
2021/03/29 05:38:14;;;;;;;8.20;7.40;;;2.90;58.40;;;;;;5187797;28;20045;-66
2021/03/29 05:40:46;;;;;;;8.07;7.28;;;3.00;59.10;;;;;;5195418;28;20104;-65
2021/03/29 05:43:19;;;;;;;11.15;8.70;;;3.00;58.60;;;;;;5194165;28;20064;-66
2021/03/29 05:45:51;;;;;;;8.88;7.97;;;3.00;59.90;;;;;;5194900;28;20049;-66
2021/03/29 05:48:22;;;;;;;9.65;8.65;;;3.00;59.80;;;;;;5196616;28;20126;-66
2021/03/29 05:50:54;;;;;;;9.65;7.43;;;3.10;59.80;;;;;;5194941;28;20539;-67
2021/03/29 05:53:26;;;;;;;9.38;8.30;;;3.30;58.50;;;;;;5193795;28;20679;-67
2021/03/29 05:55:59;;;;;;;9.27;8.38;;;3.40;58.40;;;;;;5198812;28;20526;-68
2021/03/29 05:58:36;;;;;;;9.98;8.90;;;3.50;58.90;;;;;;5197878;28;20041;-68
2021/03/29 06:01:08;;;;;;;8.90;8.00;;;3.60;59.10;;;;;;5199356;28;20064;-68
2021/03/29 06:03:40;;;;;;;8.48;7.68;;;3.60;59.80;;;;;;5200377;28;20041;-67
2021/03/29 06:06:11;;;;;;;9.18;8.27;;;3.60;59.90;;;;;;5194453;28;20041;-68
2021/03/29 06:08:51;;;;;;;9.90;8.77;;;3.80;59.80;;;;;;5189782;28;20760;-67
2021/03/29 06:11:24;;;;;;;11.63;7.35;;;3.90;58.20;;;;;;5190114;28;20116;-67
2021/03/29 06:14:17;;;;;;;8.60;7.70;;;4.00;57.40;;;;;;5189870;28;20049;-66
2021/03/29 06:16:59;;;;;;;9.00;8.10;;;4.20;57.50;;;;;;5191121;28;20054;-67
2021/03/29 06:19:44;;;;;;;10.23;8.70;;;4.40;55.70;;;;;;5184738;28;20041;-67
2021/03/29 06:22:31;;;;;;;8.95;8.10;;;4.60;54.20;;;;;;5184498;28;20124;-67
2021/03/29 06:25:20;;;;;;;9.00;8.20;;;4.80;53.70;;;;;;5186065;28;20081;-68
2021/03/29 06:27:57;;;;;;;9.93;8.18;;;5.00;55.60;;;;;;5191492;28;20050;-68
2021/03/29 06:30:36;;;;;;;8.25;7.43;;;5.10;56.50;;;;;;5200264;28;20061;-68
2021/03/29 06:33:15;;;;;;;13.57;12.25;;;5.30;57.10;;;;;;5183322;28;20108;-67
2021/03/29 06:35:49;;;;;;;12.90;11.50;;;5.50;55.70;;;;;;5187553;28;20258;-68
2021/03/29 06:38:23;;;;;;;11.30;9.85;;;5.60;55.70;;;;;;5192741;28;20127;-68
2021/03/29 06:41:00;;;;;;;12.27;9.10;;;5.80;55.00;;;;;;5184731;28;20594;-68
2021/03/29 06:43:37;;;;;;;12.65;9.60;;;5.90;55.80;;;;;;5185450;28;20045;-69
2021/03/29 06:46:23;;;;;;;10.02;9.10;;;6.10;54.80;;;;;;5185584;28;20124;-68
2021/03/29 06:48:57;;;;;;;11.23;9.30;;;6.10;54.10;;;;;;5185315;28;20045;-69
2021/03/29 06:51:33;;;;;;;10.25;8.68;;;6.20;54.20;;;;;;5188883;28;20127;-67
2021/03/29 06:54:11;;;;;;;10.77;9.60;;;6.30;55.10;;;;;;5185621;28;20049;-67
2021/03/29 06:56:45;;;;;;;10.00;9.05;;;6.30;55.10;;;;;;5188911;28;20054;-68
2021/03/29 06:59:23;;;;;;;12.50;9.27;;;6.40;55.10;;;;;;5190919;28;20139;-69
2021/03/29 07:01:57;;;;;;;14.50;9.68;;;6.50;54.90;;;;;;5189323;28;20785;-68
2021/03/29 07:04:32;;;;;;;10.50;9.45;;;6.70;55.30;;;;;;5186036;28;20085;-69
2021/03/29 07:07:04;;;;;;;10.05;9.00;;;6.80;55.70;;;;;;5184982;28;20057;-70
2021/03/29 07:09:37;;;;;;;9.82;8.82;;;7.00;54.60;;;;;;5185668;28;20050;-68
2021/03/29 07:12:09;;;;;;;9.95;8.95;;;7.10;55.10;;;;;;5186069;28;20060;-69
2021/03/29 07:14:41;;;;;;;9.77;8.77;;;7.30;56.20;;;;;;5184851;28;20048;-68
2021/03/29 07:17:15;;;;;;;9.90;8.93;;;7.20;54.00;;;;;;5185604;28;20474;-68
2021/03/29 07:19:47;;;;;;;10.77;8.90;;;7.30;55.60;;;;;;5188368;28;20046;-68
2021/03/29 07:22:19;;;;;;;9.93;8.80;;;7.50;55.80;;;;;;5202868;28;20582;-68
2021/03/29 07:24:52;;;;;;;11.10;9.65;;;7.70;54.80;;;;;;5188821;28;20041;-68
2021/03/29 07:27:24;;;;;;;10.70;9.65;;;7.70;55.50;;;;;;5184054;28;20045;-68
2021/03/29 07:29:55;;;;;;;10.07;9.18;;;7.80;54.30;;;;;;5181520;28;20044;-68
2021/03/29 07:32:28;;;;;;;10.35;9.25;;;7.80;54.60;;;;;;5163628;28;20046;-68
2021/03/29 07:35:00;;;;;;;10.13;8.95;;;8.00;54.20;;;;;;5166966;28;20100;-68
2021/03/29 07:37:39;;;;;;;9.85;8.95;;;8.10;53.10;;;;;;5168908;28;20192;-70
2021/03/29 07:40:20;;;;;;;10.50;9.40;;;8.30;53.70;;;;;;5165839;28;20039;-68
2021/03/29 07:42:54;;;;;;;10.55;9.55;;;8.40;52.30;;;;;;5165993;28;20322;-67
2021/03/29 07:45:38;;;;;;;11.18;9.95;;;8.60;53.20;;;;;;5164087;28;20676;-68
2021/03/29 07:48:14;;;;;;;10.70;9.60;;;8.80;52.20;;;;;;5165429;28;20423;-68
2021/03/29 07:50:48;;;;;;;10.88;9.88;;;9.10;49.40;;;;;;5180396;28;20065;-68
2021/03/29 07:53:37;;;;;;;10.60;9.70;;;9.30;49.60;;;;;;5165338;28;20042;-69
2021/03/29 07:56:09;;;;;;;11.10;10.10;;;9.40;48.10;;;;;;5162871;28;20100;-68
2021/03/29 07:58:47;;;;;;;10.80;9.90;;;9.70;48.90;;;;;;5165787;28;20668;-69
2021/03/29 08:01:18;;;;;;;11.32;10.27;;;9.70;49.50;;;;;;5167256;28;20046;-69
2021/03/29 08:03:54;;;;;;;11.00;9.90;;;9.90;48.40;;;;;;5165138;28;20124;-68
2021/03/29 08:06:47;;;;;;;11.27;10.07;;;10.10;47.30;;;;;;5163410;28;20046;-69
2021/03/29 08:09:40;;;;;;;10.30;9.40;;;10.40;48.20;;;;;;5178254;28;20057;-68
2021/03/29 08:12:23;;;;;;;10.65;9.65;;;10.50;45.30;;;;;;5164770;28;20127;-68
2021/03/29 08:14:55;;;;;;;10.73;9.63;;;10.70;45.40;;;;;;5167123;28;20546;-68
2021/03/29 08:17:45;;;;;;;10.50;9.60;;;10.80;46.00;;;;;;5166754;28;20052;-68
2021/03/29 08:20:19;;;;;;;;;;;10.90;47.20;;;;;;5164897;28;20108;-68
2021/03/29 08:23:29;;;;;;;10.57;9.57;;;11.10;44.50;;;;;;5167229;28;19979;-68
2021/03/29 08:26:17;;;;;;;11.38;10.18;;;11.20;44.70;;;;;;5167286;28;20727;-68
2021/03/29 08:29:08;;;;;;;10.55;9.60;;;11.50;41.30;;;;;;5164955;28;20050;-70
2021/03/29 08:32:04;;;;;;;11.43;10.32;;;11.60;40.60;;;;;;5164150;28;20074;-68
2021/03/29 08:34:45;;;;;;;10.98;9.85;;;11.80;39.90;;;;;;5165929;28;20419;-70
2021/03/29 08:37:39;;;;;;;10.80;9.80;;;12.00;39.00;;;;;;5168756;28;20052;-68
2021/03/29 08:40:18;;;;;;;11.32;10.23;;;12.10;38.90;;;;;;5161922;28;20165;-69
2021/03/29 08:42:54;;;;;;;10.73;9.82;;;12.30;38.40;;;;;;5160790;28;20455;-69
2021/03/29 08:45:27;;;;;;;10.82;9.93;;;12.40;39.10;;;;;;5164524;28;20070;-70
2021/03/29 08:48:01;;;;;;;11.30;10.30;;;12.50;38.30;;;;;;5166814;28;20081;-69
2021/03/29 08:50:38;;;;;;;10.57;9.77;;;12.60;38.60;;;;;;5166008;28;20046;-69
2021/03/29 08:53:13;;;;;;;11.30;10.20;;;12.80;38.50;;;;;;5164055;28;20054;-68
2021/03/29 08:55:45;;;;;;;12.27;10.48;;;12.90;35.50;;;;;;5166043;28;20099;-68
2021/03/29 08:58:17;;;;;;;10.77;9.75;;;13.00;35.70;;;;;;5161434;28;20062;-69
2021/03/29 09:00:50;;;;;;;11.13;10.13;;;13.10;35.80;;;;;;5165648;28;20052;-69
2021/03/29 09:03:23;;;;;;;11.57;10.60;;;13.20;35.00;;;;;;5165566;28;20081;-69
2021/03/29 09:05:54;;;;;;;11.63;10.63;;;13.20;33.20;;;;;;5164641;28;20042;-69
2021/03/29 09:08:26;;;;;;;11.70;10.70;;;13.40;35.60;;;;;;5165562;28;20113;-69
2021/03/29 09:11:02;;;;;;;11.30;10.27;;;13.60;33.30;;;;;;5161442;28;20055;-69
2021/03/29 09:13:33;;;;;;;11.38;10.38;;;13.70;32.40;;;;;;5163045;28;20089;-69
2021/03/29 09:16:05;;;;;;;11.75;10.70;;;13.80;32.60;;;;;;5164707;28;20743;-69
2021/03/29 09:18:36;;;;;;;12.13;10.93;;;14.00;34.20;;;;;;5162435;28;20050;-69
2021/03/29 09:21:08;;;;;;;11.70;10.50;;;14.20;35.00;;;;;;5162353;28;20121;-70
2021/03/29 09:23:40;;;;;;;11.50;10.50;;;14.30;34.20;;;;;;5163131;28;20116;-70
2021/03/29 09:26:11;;;;;;;11.55;10.52;;;14.50;33.80;;;;;;5163419;28;20046;-69
2021/03/29 09:28:47;;;;;;;11.40;10.50;;;14.60;31.00;;;;;;5163049;28;20519;-70
2021/03/29 09:31:25;;;;;;;12.18;11.00;;;14.70;32.20;;;;;;5164730;28;20129;-70
2021/03/29 09:33:57;;;;;;;12.05;10.88;;;14.90;32.10;;;;;;5168009;28;20145;-70
2021/03/29 09:36:31;;;;;;;11.75;10.85;;;15.10;29.80;;;;;;5165704;28;20409;-70
2021/03/29 09:39:13;;;;;;;11.95;10.95;;;15.20;30.20;;;;;;5163201;28;20054;-70
2021/03/29 09:41:51;;;;;;;12.40;11.20;;;15.40;31.80;;;;;;5166629;28;20066;-70
2021/03/29 09:44:33;;;;;;;12.02;10.95;;;15.50;32.00;;;;;;5164483;28;20077;-70
2021/03/29 09:47:04;;;;;;;11.00;9.90;;;15.50;30.60;;;;;;5166303;28;20070;-70
2021/03/29 09:49:50;;;;;;;11.68;10.57;;;15.60;30.10;;;;;;5169924;28;20097;-70
2021/03/29 09:52:37;;;;;;;12.10;11.00;;;15.70;30.30;;;;;;5167836;28;20678;-70
2021/03/29 09:55:12;;;;;;;11.40;10.40;;;15.90;30.30;;;;;;5170533;28;20042;-70
2021/03/29 09:57:45;;;;;;;11.88;10.85;;;16.00;30.60;;;;;;5163292;28;20924;-70
2021/03/29 10:00:19;;;;;;;11.60;10.60;;;16.20;29.70;;;;;;5168634;28;20049;-69
2021/03/29 10:03:00;;;;;;;11.95;10.95;;;16.30;30.00;;;;;;5164777;28;20073;-70
2021/03/29 10:05:35;;;;;;;12.10;11.10;;;16.40;28.10;;;;;;5172872;28;20046;-70
2021/03/29 10:08:07;;;;;;;12.90;10.85;;;16.40;27.20;;;;;;5167931;28;20049;-70
2021/03/29 10:10:38;;;;;;;12.45;11.13;;;16.40;28.20;;;;;;5164752;28;20069;-70
2021/03/29 10:13:12;;;;;;;12.05;10.95;;;16.40;27.50;;;;;;5168729;28;20087;-69
2021/03/29 10:15:44;;;;;;;12.23;11.23;;;16.30;26.10;;;;;;5168458;28;20131;-70
2021/03/29 10:18:15;;;;;;;13.13;11.77;;;16.20;26.80;;;;;;5168062;28;20104;-70
2021/03/29 10:20:47;;;;;;;12.40;11.40;;;16.00;26.40;;;;;;5168872;28;20132;-71
2021/03/29 10:23:30;;;;;;;12.00;10.90;;;16.20;26.30;;;;;;5167540;28;20054;-71
2021/03/29 10:26:32;;;;;;;11.50;10.60;;;16.40;26.40;;;;;;5181891;28;20104;-71
2021/03/29 10:29:05;;;;;;;11.85;10.85;;;16.60;23.80;;;;;;5165912;28;20097;-70
2021/03/29 10:31:37;;;;;;;16.25;14.65;;;16.70;25.40;;;;;;5163317;28;20073;-70
2021/03/29 10:34:08;;;;;;;11.73;10.73;;;16.70;24.20;;;;;;5164733;28;20104;-67
2021/03/29 10:36:40;;;;;;;11.95;10.98;;;16.70;23.20;;;;;;5166603;28;20148;-68
2021/03/29 10:39:11;;;;;;;11.75;10.75;;;16.60;23.90;;;;;;5165386;28;20046;-68
2021/03/29 10:41:43;;;;;;;11.82;10.82;;;16.70;24.10;;;;;;5166234;28;20101;-69
2021/03/29 10:44:14;;;;;;;13.02;11.68;;;16.90;23.80;;;;;;5166430;28;20129;-69
2021/03/29 10:46:46;;;;;;;11.65;10.55;;;16.90;23.20;;;;;;5164047;28;20427;-68
2021/03/29 10:49:17;;;;;;;11.70;10.80;;;16.90;24.50;;;;;;5166186;28;20114;-68
2021/03/29 10:51:49;;;;;;;11.30;10.40;;;16.90;23.90;;;;;;5167022;28;20539;-69
2021/03/29 10:54:20;;;;;;;12.05;10.95;;;16.80;23.50;;;;;;5170018;28;20050;-69
2021/03/29 10:56:52;;;;;;;12.15;11.05;;;16.90;24.10;;;;;;5167257;28;20053;-68
2021/03/29 10:59:23;;;;;;;11.95;10.90;;;17.00;23.90;;;;;;5162828;28;20121;-68
2021/03/29 11:01:55;;;;;;;12.10;11.00;;;17.10;23.30;;;;;;5166395;28;20081;-69
2021/03/29 11:04:27;;;;;;;12.00;11.10;;;17.30;21.90;;;;;;5168643;28;20148;-68
2021/03/29 11:06:59;;;;;;;12.05;10.90;;;17.50;22.80;;;;;;5166377;28;20871;-68
2021/03/29 11:09:30;;;;;;;12.00;11.00;;;17.60;22.00;;;;;;5167306;28;20046;-68
2021/03/29 11:12:02;;;;;;;12.23;11.23;;;17.70;22.80;;;;;;5168100;28;20139;-69
2021/03/29 11:14:33;;;;;;;12.40;11.30;;;17.80;24.00;;;;;;5157268;28;20050;-69
2021/03/29 11:17:06;;;;;;;12.18;11.18;;;17.90;22.80;;;;;;5167086;28;20050;-68
2021/03/29 11:19:37;;;;;;;12.40;11.25;;;17.90;22.10;;;;;;5171673;28;20146;-69
2021/03/29 11:22:08;;;;;;;11.93;10.93;;;18.00;23.20;;;;;;5162942;28;20046;-68
2021/03/29 11:24:40;;;;;;;11.95;11.00;;;18.00;23.40;;;;;;5169897;28;20319;-68
2021/03/29 11:27:11;;;;;;;12.00;11.00;;;18.00;24.00;;;;;;5162527;28;20756;-68
2021/03/29 11:29:43;;;;;;;12.48;11.38;;;18.10;24.50;;;;;;5170312;28;20045;-69
2021/03/29 11:32:14;;;;;;;11.82;10.82;;;18.20;24.90;;;;;;5164029;28;20045;-68
2021/03/29 11:34:46;;;;;;;11.88;10.75;;;18.30;25.00;;;;;;5166760;28;20042;-69
2021/03/29 11:37:17;;;;;;;13.07;11.88;;;18.30;24.50;;;;;;5164726;28;20112;-69
2021/03/29 11:39:49;;;;;;;12.43;11.43;;;18.40;24.10;;;;;;5167432;28;20070;-69
2021/03/29 11:42:20;;;;;;;12.45;11.27;;;18.50;24.20;;;;;;5164941;28;20057;-69
2021/03/29 11:44:51;;;;;;;12.73;11.40;;;18.50;25.20;;;;;;5181695;28;20355;-68
2021/03/29 11:47:23;;;;;;;12.65;11.65;;;18.50;25.70;;;;;;5161826;28;20182;-69
2021/03/29 11:49:55;;;;;;;12.80;11.55;;;18.60;25.60;;;;;;5164058;28;20805;-69
2021/03/29 11:52:27;;;;;;;13.15;12.05;;;18.70;24.70;;;;;;5165548;28;20080;-68
2021/03/29 11:54:59;;;;;;;12.68;11.68;;;18.80;25.60;;;;;;5165373;28;20050;-69
2021/03/29 11:57:30;;;;;;;12.85;11.73;;;18.90;25.30;;;;;;5164804;28;20689;-69
2021/03/29 12:00:06;;;;;;;12.02;11.13;;;19.00;24.30;;;;;;5161148;28;20068;-70
2021/03/29 12:02:44;;;;;;;12.75;11.70;;;19.10;22.80;;;;;;5167441;28;20674;-69
2021/03/29 12:05:22;;;;;;;12.30;11.30;;;19.10;22.40;;;;;;5166829;28;20050;-69
2021/03/29 12:13:24;;;;;;;12.88;11.80;;;19.20;22.60;;;;;;5168120;28;20255;-69
2021/03/29 12:15:57;;;;;;;13.55;12.20;;;19.30;23.80;;;;;;5163620;28;20065;-68
2021/03/29 12:21:30;;;;;;;13.38;12.27;;;19.40;23.00;;;;;;5165998;28;20054;-69
2021/03/29 12:24:13;;;;;;;13.23;12.13;;;19.50;23.70;;;;;;5165639;28;20426;-69
2021/03/29 12:26:47;;;;;;;13.73;12.63;;;19.60;24.00;;;;;;5171193;28;20038;-68
2021/03/29 12:29:35;;;;;;;13.70;12.40;;;19.70;23.50;;;;;;5165515;28;20533;-69
2021/03/29 12:32:18;;;;;;;13.82;12.55;;;19.80;23.00;;;;;;5162992;28;20052;-69
2021/03/29 12:34:57;;;;;;;13.10;11.90;;;19.80;22.50;;;;;;5163805;28;20041;-68
2021/03/29 12:37:33;;;;;;;13.23;12.10;;;19.80;22.30;;;;;;5164241;28;20120;-68
2021/03/29 12:40:14;;;;;;;14.05;12.40;;;19.90;22.70;;;;;;5173686;28;20050;-69
2021/03/29 12:43:06;;;;;;;14.00;12.80;;;20.00;22.30;;;;;;5180763;28;20041;-68
2021/03/29 12:45:40;;;;;;;13.40;12.38;;;20.10;22.30;;;;;;5165573;28;20149;-69
2021/03/29 12:48:13;;;;;;;14.25;12.90;;;20.20;22.00;;;;;;5162607;28;20066;-70
2021/03/29 12:50:48;;;;;;;13.95;12.77;;;20.30;21.50;;;;;;5168280;28;20125;-70
2021/03/29 12:53:23;;;;;;;13.70;12.60;;;20.30;21.70;;;;;;5165275;28;20476;-68
2021/03/29 12:55:56;;;;;;;13.65;12.55;;;20.30;21.00;;;;;;5164783;28;20050;-69
2021/03/29 12:58:28;;;;;;;14.07;12.77;;;20.30;21.10;;;;;;5163658;28;20669;-69
2021/03/29 13:01:07;;;;;;;14.10;12.90;;;20.30;21.60;;;;;;5165181;28;20054;-68
2021/03/29 13:03:45;;;;;;;13.80;12.50;;;20.30;21.50;;;;;;5164116;28;20200;-69
2021/03/29 13:06:34;;;;;;;13.60;12.50;;;20.30;21.50;;;;;;5159827;28;20162;-69
2021/03/29 13:09:15;;;;;;;13.75;12.60;;;20.40;21.20;;;;;;5164577;28;20518;-68
2021/03/29 13:11:50;;;;;;;13.63;12.52;;;20.40;20.90;;;;;;5162488;28;20050;-69
2021/03/29 13:14:23;;;;;;;14.02;12.90;;;20.50;21.50;;;;;;5166768;28;20576;-69
2021/03/29 13:16:55;;;;;;;13.45;12.45;;;20.50;21.70;;;;;;5167186;28;20077;-69
2021/03/29 13:19:26;;;;;;;14.40;13.13;;;20.60;21.90;;;;;;5169075;28;20803;-69
2021/03/29 13:21:58;;;;;;;14.15;13.05;;;20.70;21.90;;;;;;5170628;28;20856;-69
2021/03/29 13:24:29;;;;;;;14.02;12.82;;;20.70;21.60;;;;;;5167884;28;20070;-70
2021/03/29 13:27:01;;;;;;;14.43;13.10;;;20.70;20.70;;;;;;5168342;28;20054;-69
2021/03/29 13:29:32;;;;;;;14.02;12.73;;;20.80;20.50;;;;;;5166430;28;20563;-69
2021/03/29 13:32:06;;;;;;;14.73;13.43;;;20.80;20.70;;;;;;5167054;28;20125;-69
2021/03/29 13:34:38;;;;;;;14.48;13.32;;;20.80;20.20;;;;;;5168147;28;20074;-68